createdAt,value
2022-08-27T00:01:00.201Z,95.50
2022-08-27T00:04:02.712Z,95.50
2022-08-27T00:07:05.314Z,95.40
2022-08-27T00:10:09.171Z,95.40
2022-08-27T00:13:10.782Z,95.60
2022-08-27T00:16:14.938Z,95.50
2022-08-27T00:19:17.327Z,95.60
2022-08-27T00:22:19.216Z,95.50
2022-08-27T00:25:22.006Z,95.50
2022-08-27T00:28:24.977Z,95.90
2022-08-27T00:31:27.774Z,95.50
2022-08-27T00:34:31.354Z,95.60
2022-08-27T00:37:33.348Z,95.60
2022-08-27T00:40:35.142Z,95.60
2022-08-27T00:43:47.712Z,96.10
2022-08-27T00:47:00.974Z,95.10
2022-08-27T00:50:12.536Z,95.80
2022-08-27T00:53:15.655Z,95.60
2022-08-27T00:56:27.787Z,95.20
2022-08-27T00:59:31.045Z,95.70
2022-08-27T01:02:32.765Z,95.60
2022-08-27T01:05:36.224Z,95.70
2022-08-27T01:08:43.469Z,95.80
2022-08-27T01:11:47.724Z,95.80
2022-08-27T01:14:49.877Z,95.80
2022-08-27T01:17:52.428Z,95.70
2022-08-27T01:21:18.183Z,95.90
2022-08-27T01:24:24.672Z,95.20
2022-08-27T01:27:29.119Z,96.00
2022-08-27T01:30:31.401Z,95.90
2022-08-27T01:33:33.009Z,96.30
2022-08-27T01:36:34.622Z,95.90
2022-08-27T01:39:38.993Z,96.20
2022-08-27T01:42:45.610Z,96.00
2022-08-27T01:45:50.491Z,95.90
2022-08-27T01:48:53.099Z,96.10
2022-08-27T01:51:54.840Z,96.00
2022-08-27T01:54:56.830Z,96.20
2022-08-27T01:57:58.447Z,96.00
2022-08-27T02:01:05.010Z,96.10
2022-08-27T02:04:06.705Z,96.70
2022-08-27T02:07:08.681Z,96.10
2022-08-27T02:10:13.561Z,96.20
2022-08-27T02:13:16.183Z,96.50
2022-08-27T02:16:17.910Z,96.00
2022-08-27T02:19:20.444Z,95.90
2022-08-27T02:22:22.198Z,96.00
2022-08-27T02:25:23.852Z,95.90
2022-08-27T02:28:26.383Z,95.80
2022-08-27T02:31:28.715Z,96.00
2022-08-27T02:34:30.392Z,95.90
2022-08-27T02:37:32.007Z,95.80
2022-08-27T02:40:33.946Z,95.80
2022-08-27T02:43:36.020Z,95.90
2022-08-27T02:46:39.013Z,95.80
2022-08-27T02:49:40.715Z,95.70
2022-08-27T02:52:45.220Z,95.80
2022-08-27T02:55:48.346Z,95.80
2022-08-27T02:58:49.982Z,95.80
2022-08-27T03:01:51.758Z,95.70
2022-08-27T03:04:53.464Z,95.80
2022-08-27T03:07:55.053Z,95.90
2022-08-27T03:10:56.884Z,95.60
2022-08-27T03:13:59.009Z,95.60
2022-08-27T03:17:20.793Z,95.70
2022-08-27T03:20:23.305Z,95.70
2022-08-27T03:23:28.172Z,95.70
2022-08-27T03:26:30.405Z,96.00
2022-08-27T03:29:33.057Z,95.80
2022-08-27T03:32:37.590Z,95.90
2022-08-27T03:35:39.209Z,95.60
2022-08-27T03:38:40.787Z,95.60
2022-08-27T03:41:54.920Z,95.70
2022-08-27T03:44:57.389Z,96.00
2022-08-27T03:47:58.959Z,95.80
2022-08-27T03:51:06.487Z,95.80
2022-08-27T03:54:08.090Z,96.00
2022-08-27T03:57:09.733Z,95.80
2022-08-27T04:00:13.955Z,95.80
2022-08-27T04:03:15.759Z,95.70
2022-08-27T04:06:17.403Z,95.80
2022-08-27T04:09:19.052Z,95.70
2022-08-27T04:12:20.779Z,95.80
2022-08-27T04:15:22.337Z,95.60
2022-08-27T04:18:24.078Z,95.70
2022-08-27T04:21:26.087Z,95.60
2022-08-27T04:24:28.624Z,95.60
2022-08-27T04:27:31.870Z,95.70
2022-08-27T04:30:40.432Z,95.70
2022-08-27T04:33:42.246Z,95.80
2022-08-27T04:36:56.021Z,96.40
2022-08-27T04:39:57.931Z,95.80
2022-08-27T04:42:59.546Z,95.70
2022-08-27T04:46:01.693Z,95.60
2022-08-27T04:49:10.056Z,95.80
2022-08-27T04:52:12.601Z,95.80
2022-08-27T04:55:14.197Z,95.80
2022-08-27T04:58:16.644Z,96.10
2022-08-27T05:01:23.760Z,95.70
2022-08-27T05:04:26.546Z,95.80
2022-08-27T05:07:28.380Z,95.80
2022-08-27T05:10:30.018Z,95.70
2022-08-27T05:13:33.061Z,95.80
2022-08-27T05:16:38.223Z,95.70
2022-08-27T05:19:40.128Z,95.70
2022-08-27T05:22:41.729Z,95.50
2022-08-27T05:25:46.191Z,95.60
2022-08-27T05:28:48.184Z,96.20
2022-08-27T05:31:50.316Z,95.70
2022-08-27T05:34:51.876Z,95.90
2022-08-27T05:37:54.472Z,95.20
2022-08-27T05:41:05.546Z,95.60
2022-08-27T05:44:30.289Z,95.80
2022-08-27T05:47:31.465Z,95.70
2022-08-27T05:50:43.476Z,95.70
2022-08-27T05:53:45.075Z,95.90
2022-08-27T05:56:49.255Z,95.50
2022-08-27T06:00:09.405Z,95.40
2022-08-27T06:03:16.557Z,94.60
2022-08-27T06:06:18.539Z,95.60
2022-08-27T06:09:23.871Z,95.40
2022-08-27T06:12:28.202Z,95.40
2022-08-27T06:15:35.272Z,95.60
2022-08-27T06:18:45.184Z,94.40
2022-08-27T06:22:10.717Z,95.00
2022-08-27T06:25:12.513Z,96.00
2022-08-27T06:28:14.101Z,95.30
2022-08-27T06:31:20.688Z,95.10
2022-08-27T06:34:22.432Z,94.90
2022-08-27T06:37:24.103Z,94.90
2022-08-27T06:40:25.882Z,94.70
2022-08-27T06:43:27.539Z,95.20
2022-08-27T06:46:29.938Z,94.80
2022-08-27T06:49:33.438Z,94.70
2022-08-27T06:52:35.021Z,94.60
2022-08-27T06:55:47.844Z,94.60
2022-08-27T06:58:54.068Z,93.70
2022-08-27T07:01:55.930Z,94.50
2022-08-27T07:04:57.586Z,94.60
2022-08-27T07:08:00.128Z,94.50
2022-08-27T07:11:02.175Z,94.80
2022-08-27T07:14:05.569Z,94.30
2022-08-27T07:17:11.364Z,94.70
2022-08-27T07:20:19.676Z,94.30
2022-08-27T07:23:21.625Z,94.40
2022-08-27T07:26:23.958Z,94.10
2022-08-27T07:29:27.465Z,94.10
2022-08-27T07:32:32.209Z,94.30
2022-08-27T07:35:33.772Z,93.90
2022-08-27T07:38:37.165Z,96.40
2022-08-27T07:41:58.711Z,94.10
2022-08-27T07:45:05.103Z,93.70
2022-08-27T07:48:07.879Z,94.10
2022-08-27T07:51:19.069Z,93.60
2022-08-27T07:54:22.830Z,93.50
2022-08-27T07:57:24.386Z,93.40
2022-08-27T08:00:26.445Z,93.30
2022-08-27T08:03:28.784Z,93.20
2022-08-27T08:06:30.645Z,93.10
2022-08-27T08:09:33.154Z,93.00
2022-08-27T08:12:36.356Z,93.00
2022-08-27T08:15:38.107Z,93.00
2022-08-27T08:18:39.760Z,93.30
2022-08-27T08:21:42.665Z,92.80
2022-08-27T08:24:44.265Z,92.90
2022-08-27T08:27:45.901Z,92.80
2022-08-27T08:30:47.898Z,92.50
2022-08-27T08:33:49.997Z,92.70
2022-08-27T08:36:55.044Z,92.70
2022-08-27T08:39:57.102Z,92.90
2022-08-27T08:43:00.377Z,92.70
2022-08-27T08:46:27.076Z,92.60
2022-08-27T08:49:34.688Z,93.20
2022-08-27T08:53:01.919Z,91.60
2022-08-27T08:56:08.955Z,91.70
2022-08-27T08:59:37.964Z,92.50
2022-08-27T09:02:43.278Z,91.70
2022-08-27T09:05:54.836Z,92.60
2022-08-27T09:09:01.598Z,92.30
2022-08-27T09:12:19.753Z,92.30
2022-08-27T09:15:24.915Z,92.30
2022-08-27T09:18:27.957Z,92.10
2022-08-27T09:21:32.896Z,92.00
2022-08-27T09:24:55.328Z,92.10
2022-08-27T09:28:00.179Z,91.90
2022-08-27T09:31:07.633Z,91.80
2022-08-27T09:34:09.633Z,91.70
2022-08-27T09:37:20.345Z,91.40
2022-08-27T09:40:38.431Z,91.50
2022-08-27T09:43:43.661Z,90.50
2022-08-27T09:46:56.119Z,91.30
2022-08-27T09:50:06.674Z,91.20
2022-08-27T09:53:25.403Z,91.00
2022-08-27T09:56:39.846Z,90.00
2022-08-27T09:59:52.674Z,91.20
2022-08-27T10:02:54.924Z,91.10
2022-08-27T10:05:56.832Z,90.70
2022-08-27T10:09:07.385Z,90.50
2022-08-27T10:12:19.378Z,90.70
2022-08-27T10:15:23.810Z,90.40
2022-08-27T10:18:31.395Z,90.40
2022-08-27T10:22:15.636Z,90.10
2022-08-27T10:25:32.733Z,89.10
2022-08-27T10:28:46.966Z,88.20
2022-08-27T10:32:18.047Z,87.70
2022-08-27T10:35:31.409Z,87.80
2022-08-27T10:39:06.284Z,87.70
2022-08-27T10:42:17.816Z,90.30
2022-08-27T10:45:42.932Z,89.70
2022-08-27T10:48:57.232Z,87.90
2022-08-27T10:52:30.054Z,89.30
2022-08-27T10:55:43.280Z,87.40
2022-08-27T10:58:57.732Z,87.70
2022-08-27T11:02:10.814Z,90.00
2022-08-27T11:05:24.607Z,88.90
2022-08-27T11:08:34.936Z,89.00
2022-08-27T11:12:13.464Z,88.60
2022-08-27T11:15:24.752Z,88.50
2022-08-27T11:18:30.090Z,86.20
2022-08-27T11:22:06.662Z,86.20
2022-08-27T11:25:22.967Z,88.00
2022-08-27T11:28:47.595Z,87.60
2022-08-27T11:32:23.286Z,86.40
2022-08-27T11:35:45.106Z,86.70
2022-08-27T11:38:58.708Z,88.60
2022-08-27T11:42:15.361Z,86.10
2022-08-27T11:45:54.536Z,85.60
2022-08-27T11:48:59.611Z,86.00
2022-08-27T11:52:07.302Z,87.40
2022-08-27T11:55:24.960Z,87.90
2022-08-27T11:58:30.539Z,85.40
2022-08-27T12:01:34.669Z,86.90
2022-08-27T12:04:39.692Z,88.40
2022-08-27T12:07:44.981Z,87.50
2022-08-27T12:11:17.756Z,87.40
2022-08-27T12:14:40.854Z,86.10
2022-08-27T12:17:51.989Z,85.80
2022-08-27T12:21:13.380Z,87.20
2022-08-27T12:24:43.959Z,85.70
2022-08-27T12:27:55.552Z,85.10
2022-08-27T12:30:58.553Z,86.80
2022-08-27T12:34:00.178Z,87.00
2022-08-27T12:37:02.807Z,86.20
2022-08-27T12:40:26.786Z,86.30
2022-08-27T12:43:33.457Z,83.90
2022-08-27T12:46:54.481Z,85.70
2022-08-27T12:50:01.205Z,85.90
2022-08-27T12:53:15.991Z,85.70
2022-08-27T12:56:56.664Z,85.00
2022-08-27T13:00:09.336Z,85.30
2022-08-27T13:03:17.116Z,85.10
2022-08-27T13:06:22.300Z,86.20
2022-08-27T13:09:34.602Z,85.60
2022-08-27T13:12:36.267Z,84.30
2022-08-27T13:15:55.584Z,85.40
2022-08-27T13:18:57.276Z,82.50
2022-08-27T13:21:59.198Z,84.60
2022-08-27T13:25:00.796Z,85.10
2022-08-27T13:28:12.507Z,86.10
2022-08-27T13:31:15.313Z,82.30
2022-08-27T13:34:23.924Z,84.20
2022-08-27T13:37:44.773Z,84.00
2022-08-27T13:41:05.914Z,82.20
2022-08-27T13:44:35.549Z,82.60
2022-08-27T13:47:48.838Z,82.00
2022-08-27T13:50:56.007Z,82.30
2022-08-27T13:54:18.503Z,83.30
2022-08-27T13:57:31.800Z,83.10
2022-08-27T14:00:34.701Z,83.30
2022-08-27T14:03:47.184Z,82.90
2022-08-27T14:06:49.030Z,83.30
2022-08-27T14:10:02.135Z,84.00
2022-08-27T14:13:10.743Z,84.30
2022-08-27T14:16:30.893Z,80.90
2022-08-27T14:19:36.688Z,83.60
2022-08-27T14:22:39.119Z,82.80
2022-08-27T14:25:41.418Z,82.10
2022-08-27T14:28:43.454Z,82.80
2022-08-27T14:31:45.491Z,82.30
2022-08-27T14:34:48.249Z,82.30
2022-08-27T14:37:50.044Z,82.30
2022-08-27T14:40:54.385Z,82.10
2022-08-27T14:43:56.312Z,81.60
2022-08-27T14:47:00.049Z,82.60
2022-08-27T14:50:01.966Z,80.90
2022-08-27T14:53:04.099Z,82.00
2022-08-27T14:56:06.202Z,81.40
2022-08-27T14:59:07.775Z,81.00
2022-08-27T15:02:13.669Z,81.20
2022-08-27T15:05:16.733Z,80.80
2022-08-27T15:08:18.789Z,80.80
2022-08-27T15:11:27.537Z,80.70
2022-08-27T15:14:33.393Z,80.40
2022-08-27T15:17:35.923Z,80.50
2022-08-27T15:20:37.600Z,80.60
2022-08-27T15:23:39.234Z,80.70
2022-08-27T15:26:40.924Z,81.10
2022-08-27T15:29:42.700Z,80.10
2022-08-27T15:32:47.899Z,81.10
2022-08-27T15:35:49.592Z,81.00
2022-08-27T15:38:51.312Z,80.60
2022-08-27T15:42:08.373Z,81.20
2022-08-27T15:45:12.095Z,80.90
2022-08-27T15:48:14.128Z,80.50
2022-08-27T15:51:16.641Z,80.40
2022-08-27T15:54:18.479Z,80.40
2022-08-27T15:57:21.121Z,80.30
2022-08-27T16:00:23.345Z,80.10
2022-08-27T16:03:35.473Z,80.30
2022-08-27T16:06:38.539Z,81.20
2022-08-27T16:09:40.588Z,81.50
2022-08-27T16:12:42.402Z,80.20
2022-08-27T16:15:44.113Z,80.00
2022-08-27T16:18:45.772Z,80.10
2022-08-27T16:21:47.952Z,80.10
2022-08-27T16:24:51.820Z,79.70
2022-08-27T16:27:53.567Z,80.00
2022-08-27T16:30:56.668Z,79.50
2022-08-27T16:33:58.967Z,79.70
2022-08-27T16:37:00.840Z,79.90
2022-08-27T16:40:02.740Z,79.80
2022-08-27T16:43:04.506Z,79.50
2022-08-27T16:46:06.496Z,80.50
2022-08-27T16:49:27.017Z,79.60
2022-08-27T16:52:28.779Z,79.20
2022-08-27T16:55:30.600Z,80.80
2022-08-27T16:58:32.494Z,79.80
2022-08-27T17:01:35.075Z,79.80
2022-08-27T17:04:42.336Z,81.00
2022-08-27T17:07:48.977Z,79.50
2022-08-27T17:10:53.099Z,79.30
2022-08-27T17:13:58.630Z,79.60
2022-08-27T17:17:00.352Z,80.20
2022-08-27T17:20:02.577Z,79.40
2022-08-27T17:23:05.096Z,79.40
2022-08-27T17:26:09.390Z,79.80
2022-08-27T17:29:11.228Z,79.50
2022-08-27T17:32:13.070Z,79.40
2022-08-27T17:35:15.548Z,79.60
2022-08-27T17:38:17.163Z,79.10
2022-08-27T17:41:25.417Z,79.30
2022-08-27T17:44:34.787Z,80.40
2022-08-27T17:47:36.402Z,79.20
2022-08-27T17:50:41.347Z,79.60
2022-08-27T17:53:49.308Z,85.70
2022-08-27T17:56:51.024Z,79.10
2022-08-27T17:59:53.867Z,79.50
2022-08-27T18:02:55.633Z,79.30
2022-08-27T18:05:57.188Z,79.40
2022-08-27T18:08:58.908Z,79.40
2022-08-27T18:12:00.584Z,79.90
2022-08-27T18:15:17.666Z,79.30
2022-08-27T18:18:19.547Z,77.90
2022-08-27T18:21:25.613Z,79.90
2022-08-27T18:24:27.990Z,80.70
2022-08-27T18:27:32.634Z,79.90
2022-08-27T18:30:35.050Z,79.70
2022-08-27T18:33:37.739Z,80.00
2022-08-27T18:36:39.383Z,80.50
2022-08-27T18:39:41.823Z,79.70
2022-08-27T18:42:44.330Z,79.70
2022-08-27T18:45:46.056Z,79.80
2022-08-27T18:48:47.930Z,80.20
2022-08-27T18:51:52.653Z,79.80
2022-08-27T18:54:54.463Z,80.10
2022-08-27T18:57:56.173Z,79.70
2022-08-27T19:01:01.689Z,81.00
2022-08-27T19:04:04.726Z,79.90
2022-08-27T19:07:06.397Z,79.70
2022-08-27T19:10:08.268Z,79.70
2022-08-27T19:13:12.892Z,79.50
2022-08-27T19:16:19.577Z,79.90
2022-08-27T19:19:23.294Z,79.70
2022-08-27T19:22:24.926Z,79.90
2022-08-27T19:25:28.825Z,80.70
2022-08-27T19:28:37.614Z,80.10
2022-08-27T19:31:39.317Z,80.00
2022-08-27T19:34:41.640Z,79.60
2022-08-27T19:37:52.597Z,79.90
2022-08-27T19:40:55.163Z,79.80
2022-08-27T19:43:57.106Z,80.70
2022-08-27T19:47:01.660Z,80.50
2022-08-27T19:50:04.074Z,78.40
2022-08-27T19:53:05.651Z,79.70
2022-08-27T19:56:13.354Z,80.00
2022-08-27T19:59:21.330Z,79.70
2022-08-27T20:02:23.273Z,79.70
2022-08-27T20:05:24.957Z,79.40
2022-08-27T20:08:26.611Z,79.70
2022-08-27T20:11:28.295Z,81.20
2022-08-27T20:14:29.959Z,80.00
2022-08-27T20:17:32.487Z,79.80
2022-08-27T20:20:34.989Z,80.10
2022-08-27T20:23:36.644Z,79.80
2022-08-27T20:26:38.373Z,80.60
2022-08-27T20:29:41.468Z,79.80
2022-08-27T20:32:43.478Z,80.90
2022-08-27T20:35:45.266Z,79.10
2022-08-27T20:38:47.409Z,80.60
2022-08-27T20:41:49.008Z,79.90
2022-08-27T20:44:50.622Z,79.70
2022-08-27T20:47:53.815Z,79.80
2022-08-27T20:50:55.582Z,80.80
2022-08-27T20:53:57.164Z,79.70
2022-08-27T20:56:58.844Z,79.50
2022-08-27T21:00:18.998Z,79.50
2022-08-27T21:03:22.017Z,78.00
2022-08-27T21:06:26.458Z,79.70
2022-08-27T21:09:28.258Z,79.60
2022-08-27T21:12:30.941Z,79.30
2022-08-27T21:15:32.623Z,79.20
2022-08-27T21:18:34.932Z,79.20
2022-08-27T21:21:36.538Z,79.50
2022-08-27T21:24:38.134Z,79.40
2022-08-27T21:27:40.296Z,79.80
2022-08-27T21:30:42.333Z,79.60
2022-08-27T21:33:44.067Z,79.80
2022-08-27T21:36:45.648Z,79.20
2022-08-27T21:39:47.385Z,80.00
2022-08-27T21:42:49.244Z,80.00
2022-08-27T21:45:56.202Z,79.90
2022-08-27T21:48:58.586Z,80.20
2022-08-27T21:52:04.658Z,80.20
2022-08-27T21:55:07.472Z,80.00
2022-08-27T21:58:09.170Z,79.90
2022-08-27T22:01:10.814Z,80.20
2022-08-27T22:04:13.255Z,80.10
2022-08-27T22:07:14.844Z,80.20
2022-08-27T22:10:16.491Z,80.20
2022-08-27T22:13:18.316Z,81.20
2022-08-27T22:16:20.091Z,80.20
2022-08-27T22:19:22.463Z,80.90
2022-08-27T22:22:24.200Z,81.00
2022-08-27T22:25:32.451Z,80.30
2022-08-27T22:28:34.102Z,81.40
2022-08-27T22:31:35.853Z,80.40
2022-08-27T22:34:37.512Z,80.50
2022-08-27T22:37:39.433Z,80.80
2022-08-27T22:40:41.173Z,80.50
2022-08-27T22:43:43.030Z,80.70
2022-08-27T22:46:44.715Z,80.60
2022-08-27T22:49:46.404Z,82.00
2022-08-27T22:52:49.092Z,80.90
2022-08-27T22:55:50.785Z,81.10
2022-08-27T22:58:52.395Z,81.20
2022-08-27T23:01:55.539Z,81.20
2022-08-27T23:04:57.236Z,81.40
2022-08-27T23:07:58.986Z,81.30
2022-08-27T23:11:03.257Z,80.90
2022-08-27T23:14:04.926Z,81.60
2022-08-27T23:17:06.707Z,81.40
2022-08-27T23:20:09.854Z,81.70
2022-08-27T23:23:12.546Z,81.20
2022-08-27T23:26:32.645Z,81.70
2022-08-27T23:29:35.651Z,80.90
2022-08-27T23:32:37.750Z,81.80
2022-08-27T23:35:41.108Z,83.10
2022-08-27T23:38:42.708Z,81.70
2022-08-27T23:41:44.408Z,81.50
2022-08-27T23:44:47.333Z,81.70
2022-08-27T23:47:49.151Z,82.70
2022-08-27T23:50:51.792Z,81.60
2022-08-27T23:53:53.607Z,81.50
2022-08-27T23:56:55.151Z,81.70
2022-08-27T23:59:57.212Z,82.00
